sensor_id;sensor_type;location;lat;lon;timestamp;temperature;humidity
4739;DHT22;2383;48.632;10.156;2023-09-07T00:03:48;14.30;99.90
4739;DHT22;2383;48.632;10.156;2023-09-07T00:07:50;14.30;99.90
4739;DHT22;2383;48.632;10.156;2023-09-07T00:11:52;14.50;99.90
4739;DHT22;2383;48.632;10.156;2023-09-07T00:15:59;14.20;99.90
4739;DHT22;2383;48.632;10.156;2023-09-07T00:20:03;14.20;99.90
4739;DHT22;2383;48.632;10.156;2023-09-07T00:24:12;14.10;99.90
4739;DHT22;2383;48.632;10.156;2023-09-07T00:28:14;14.10;99.90
4739;DHT22;2383;48.632;10.156;2023-09-07T00:32:16;14.30;99.90
4739;DHT22;2383;48.632;10.156;2023-09-07T00:36:18;14.00;99.90
4739;DHT22;2383;48.632;10.156;2023-09-07T00:40:21;14.00;99.90
4739;DHT22;2383;48.632;10.156;2023-09-07T00:44:23;13.90;99.90
4739;DHT22;2383;48.632;10.156;2023-09-07T00:48:25;14.00;99.90
4739;DHT22;2383;48.632;10.156;2023-09-07T00:52:28;13.90;99.90
4739;DHT22;2383;48.632;10.156;2023-09-07T00:56:30;14.00;99.90
4739;DHT22;2383;48.632;10.156;2023-09-07T01:00:34;13.90;99.90
4739;DHT22;2383;48.632;10.156;2023-09-07T01:04:37;13.80;99.90
4739;DHT22;2383;48.632;10.156;2023-09-07T01:08:46;13.80;99.90
4739;DHT22;2383;48.632;10.156;2023-09-07T01:12:48;13.80;99.90
4739;DHT22;2383;48.632;10.156;2023-09-07T01:16:50;13.60;99.90
4739;DHT22;2383;48.632;10.156;2023-09-07T01:20:54;13.70;99.90
4739;DHT22;2383;48.632;10.156;2023-09-07T01:25:02;13.60;99.90
4739;DHT22;2383;48.632;10.156;2023-09-07T01:29:07;13.50;99.90
4739;DHT22;2383;48.632;10.156;2023-09-07T01:33:10;13.30;99.90
4739;DHT22;2383;48.632;10.156;2023-09-07T01:37:13;13.40;99.90
4739;DHT22;2383;48.632;10.156;2023-09-07T01:41:15;13.30;99.90
4739;DHT22;2383;48.632;10.156;2023-09-07T01:45:17;13.30;99.90
4739;DHT22;2383;48.632;10.156;2023-09-07T01:49:19;13.30;99.90
4739;DHT22;2383;48.632;10.156;2023-09-07T01:53:21;13.40;99.90
4739;DHT22;2383;48.632;10.156;2023-09-07T01:57:25;13.40;99.90
4739;DHT22;2383;48.632;10.156;2023-09-07T02:01:30;13.20;99.90
4739;DHT22;2383;48.632;10.156;2023-09-07T02:05:32;13.20;99.90
4739;DHT22;2383;48.632;10.156;2023-09-07T02:09:35;13.40;99.90
4739;DHT22;2383;48.632;10.156;2023-09-07T02:13:37;13.20;99.90
4739;DHT22;2383;48.632;10.156;2023-09-07T02:17:39;13.30;99.90
4739;DHT22;2383;48.632;10.156;2023-09-07T02:21:41;13.10;99.90
4739;DHT22;2383;48.632;10.156;2023-09-07T02:25:44;13.10;99.90
4739;DHT22;2383;48.632;10.156;2023-09-07T02:29:46;13.20;99.90
4739;DHT22;2383;48.632;10.156;2023-09-07T02:33:49;13.20;99.90
4739;DHT22;2383;48.632;10.156;2023-09-07T02:37:51;13.00;99.90
4739;DHT22;2383;48.632;10.156;2023-09-07T02:41:53;13.20;99.90
4739;DHT22;2383;48.632;10.156;2023-09-07T02:45:55;13.20;99.90
4739;DHT22;2383;48.632;10.156;2023-09-07T02:49:57;13.20;99.90
4739;DHT22;2383;48.632;10.156;2023-09-07T02:54:01;13.20;99.90
4739;DHT22;2383;48.632;10.156;2023-09-07T02:58:06;13.00;99.90
4739;DHT22;2383;48.632;10.156;2023-09-07T03:02:08;13.00;99.90
4739;DHT22;2383;48.632;10.156;2023-09-07T03:06:13;13.10;99.90
4739;DHT22;2383;48.632;10.156;2023-09-07T03:10:18;13.20;99.90
4739;DHT22;2383;48.632;10.156;2023-09-07T03:14:21;12.90;99.90
4739;DHT22;2383;48.632;10.156;2023-09-07T03:18:23;12.90;99.90
4739;DHT22;2383;48.632;10.156;2023-09-07T03:22:25;12.90;99.90
4739;DHT22;2383;48.632;10.156;2023-09-07T03:26:27;12.90;99.90
4739;DHT22;2383;48.632;10.156;2023-09-07T03:30:30;13.20;99.90
4739;DHT22;2383;48.632;10.156;2023-09-07T03:34:32;12.80;99.90
4739;DHT22;2383;48.632;10.156;2023-09-07T03:38:34;12.80;99.90
4739;DHT22;2383;48.632;10.156;2023-09-07T03:42:40;12.90;99.90
4739;DHT22;2383;48.632;10.156;2023-09-07T03:46:43;12.80;99.90
4739;DHT22;2383;48.632;10.156;2023-09-07T03:50:45;12.80;99.90
4739;DHT22;2383;48.632;10.156;2023-09-07T03:54:47;12.80;99.90
4739;DHT22;2383;48.632;10.156;2023-09-07T03:58:51;12.70;99.90
4739;DHT22;2383;48.632;10.156;2023-09-07T04:02:53;12.70;99.90
4739;DHT22;2383;48.632;10.156;2023-09-07T04:06:55;12.80;99.90
4739;DHT22;2383;48.632;10.156;2023-09-07T04:10:57;12.80;99.90
4739;DHT22;2383;48.632;10.156;2023-09-07T04:15:03;12.70;99.90
4739;DHT22;2383;48.632;10.156;2023-09-07T04:19:05;13.00;99.90
4739;DHT22;2383;48.632;10.156;2023-09-07T04:23:08;12.70;99.90
4739;DHT22;2383;48.632;10.156;2023-09-07T04:27:11;12.80;99.90
4739;DHT22;2383;48.632;10.156;2023-09-07T04:31:13;12.50;99.90
4739;DHT22;2383;48.632;10.156;2023-09-07T04:35:15;12.40;99.90
4739;DHT22;2383;48.632;10.156;2023-09-07T04:39:18;12.40;99.90
4739;DHT22;2383;48.632;10.156;2023-09-07T04:43:20;12.30;99.90
4739;DHT22;2383;48.632;10.156;2023-09-07T04:47:22;12.30;99.90
4739;DHT22;2383;48.632;10.156;2023-09-07T04:51:24;12.30;99.90
4739;DHT22;2383;48.632;10.156;2023-09-07T04:55:28;12.20;99.90
4739;DHT22;2383;48.632;10.156;2023-09-07T04:59:30;12.00;99.90
4739;DHT22;2383;48.632;10.156;2023-09-07T05:03:32;12.20;99.90
4739;DHT22;2383;48.632;10.156;2023-09-07T05:07:35;12.50;99.90
4739;DHT22;2383;48.632;10.156;2023-09-07T05:11:37;12.30;99.90
4739;DHT22;2383;48.632;10.156;2023-09-07T05:15:53;12.30;99.90
4739;DHT22;2383;48.632;10.156;2023-09-07T05:19:55;12.10;99.90
4739;DHT22;2383;48.632;10.156;2023-09-07T05:23:57;12.20;99.90
4739;DHT22;2383;48.632;10.156;2023-09-07T05:28:00;12.30;99.90
4739;DHT22;2383;48.632;10.156;2023-09-07T05:32:02;12.40;99.90
4739;DHT22;2383;48.632;10.156;2023-09-07T05:36:06;12.50;99.90
4739;DHT22;2383;48.632;10.156;2023-09-07T05:40:10;12.60;99.90
4739;DHT22;2383;48.632;10.156;2023-09-07T05:44:13;12.60;99.90
4739;DHT22;2383;48.632;10.156;2023-09-07T05:48:18;13.10;99.90
4739;DHT22;2383;48.632;10.156;2023-09-07T05:52:23;12.70;99.90
4739;DHT22;2383;48.632;10.156;2023-09-07T05:56:25;12.80;99.90
4739;DHT22;2383;48.632;10.156;2023-09-07T06:00:27;12.90;99.90
4739;DHT22;2383;48.632;10.156;2023-09-07T06:04:30;13.00;99.90
4739;DHT22;2383;48.632;10.156;2023-09-07T06:08:33;13.20;99.90
4739;DHT22;2383;48.632;10.156;2023-09-07T06:12:35;13.20;99.90
4739;DHT22;2383;48.632;10.156;2023-09-07T06:16:38;13.40;99.90
4739;DHT22;2383;48.632;10.156;2023-09-07T06:20:41;13.30;99.90
4739;DHT22;2383;48.632;10.156;2023-09-07T06:24:44;13.50;99.90
4739;DHT22;2383;48.632;10.156;2023-09-07T06:28:46;13.70;99.90
4739;DHT22;2383;48.632;10.156;2023-09-07T06:32:49;13.70;99.90
4739;DHT22;2383;48.632;10.156;2023-09-07T06:36:53;14.00;99.90
4739;DHT22;2383;48.632;10.156;2023-09-07T06:40:55;14.30;99.90
4739;DHT22;2383;48.632;10.156;2023-09-07T06:44:57;14.50;99.90
4739;DHT22;2383;48.632;10.156;2023-09-07T06:48:59;14.70;99.90
4739;DHT22;2383;48.632;10.156;2023-09-07T06:53:02;14.90;99.90
4739;DHT22;2383;48.632;10.156;2023-09-07T06:57:08;15.10;99.90
4739;DHT22;2383;48.632;10.156;2023-09-07T07:01:13;15.20;99.90
4739;DHT22;2383;48.632;10.156;2023-09-07T07:05:15;15.40;99.90
4739;DHT22;2383;48.632;10.156;2023-09-07T07:09:18;15.60;99.90
4739;DHT22;2383;48.632;10.156;2023-09-07T07:17:41;15.70;99.90
4739;DHT22;2383;48.632;10.156;2023-09-07T07:21:43;15.60;99.90
4739;DHT22;2383;48.632;10.156;2023-09-07T07:25:46;16.00;99.90
4739;DHT22;2383;48.632;10.156;2023-09-07T07:29:50;16.00;99.90
4739;DHT22;2383;48.632;10.156;2023-09-07T07:33:54;16.30;99.90
4739;DHT22;2383;48.632;10.156;2023-09-07T07:37:57;15.70;99.90
4739;DHT22;2383;48.632;10.156;2023-09-07T07:42:00;16.30;99.90
4739;DHT22;2383;48.632;10.156;2023-09-07T07:46:02;16.60;99.90
4739;DHT22;2383;48.632;10.156;2023-09-07T07:50:06;16.70;99.90
4739;DHT22;2383;48.632;10.156;2023-09-07T07:54:09;16.90;99.90
4739;DHT22;2383;48.632;10.156;2023-09-07T07:58:12;16.90;99.90
4739;DHT22;2383;48.632;10.156;2023-09-07T08:02:18;16.80;99.90
4739;DHT22;2383;48.632;10.156;2023-09-07T08:06:22;17.10;99.90
4739;DHT22;2383;48.632;10.156;2023-09-07T08:10:25;17.20;99.90
4739;DHT22;2383;48.632;10.156;2023-09-07T08:14:32;17.30;99.90
4739;DHT22;2383;48.632;10.156;2023-09-07T08:18:36;17.00;99.90
4739;DHT22;2383;48.632;10.156;2023-09-07T08:22:39;16.90;99.90
4739;DHT22;2383;48.632;10.156;2023-09-07T08:26:45;17.10;99.90
4739;DHT22;2383;48.632;10.156;2023-09-07T08:30:51;17.30;99.90
4739;DHT22;2383;48.632;10.156;2023-09-07T08:34:56;17.60;99.90
4739;DHT22;2383;48.632;10.156;2023-09-07T08:39:03;17.60;99.90
4739;DHT22;2383;48.632;10.156;2023-09-07T08:43:09;17.50;99.90
4739;DHT22;2383;48.632;10.156;2023-09-07T08:47:14;17.60;99.90
4739;DHT22;2383;48.632;10.156;2023-09-07T08:51:18;17.70;99.90
4739;DHT22;2383;48.632;10.156;2023-09-07T08:55:22;17.20;99.90
4739;DHT22;2383;48.632;10.156;2023-09-07T08:59:25;17.30;99.90
4739;DHT22;2383;48.632;10.156;2023-09-07T09:03:27;17.70;99.90
4739;DHT22;2383;48.632;10.156;2023-09-07T09:07:30;17.90;99.90
4739;DHT22;2383;48.632;10.156;2023-09-07T09:11:35;18.10;99.90
4739;DHT22;2383;48.632;10.156;2023-09-07T09:15:37;17.40;99.90
4739;DHT22;2383;48.632;10.156;2023-09-07T09:19:40;18.20;99.90
4739;DHT22;2383;48.632;10.156;2023-09-07T09:23:43;18.50;99.90
4739;DHT22;2383;48.632;10.156;2023-09-07T09:27:47;18.30;99.90
4739;DHT22;2383;48.632;10.156;2023-09-07T09:31:51;18.50;99.90
4739;DHT22;2383;48.632;10.156;2023-09-07T09:35:54;18.80;99.90
4739;DHT22;2383;48.632;10.156;2023-09-07T09:39:58;18.60;99.90
4739;DHT22;2383;48.632;10.156;2023-09-07T09:44:03;18.80;99.90
4739;DHT22;2383;48.632;10.156;2023-09-07T09:48:06;18.90;99.90
4739;DHT22;2383;48.632;10.156;2023-09-07T09:52:09;19.00;99.90
4739;DHT22;2383;48.632;10.156;2023-09-07T09:56:11;18.60;99.90
4739;DHT22;2383;48.632;10.156;2023-09-07T10:00:14;18.90;99.90
4739;DHT22;2383;48.632;10.156;2023-09-07T10:04:20;19.00;99.90
4739;DHT22;2383;48.632;10.156;2023-09-07T10:08:24;19.30;99.90
4739;DHT22;2383;48.632;10.156;2023-09-07T10:12:27;19.20;99.90
4739;DHT22;2383;48.632;10.156;2023-09-07T10:16:51;19.20;99.90
4739;DHT22;2383;48.632;10.156;2023-09-07T10:20:58;19.20;99.90
4739;DHT22;2383;48.632;10.156;2023-09-07T10:25:00;19.00;99.90
4739;DHT22;2383;48.632;10.156;2023-09-07T10:29:02;18.30;99.90
4739;DHT22;2383;48.632;10.156;2023-09-07T10:33:07;18.30;99.90
4739;DHT22;2383;48.632;10.156;2023-09-07T10:37:28;18.60;99.90
4739;DHT22;2383;48.632;10.156;2023-09-07T10:41:55;19.00;99.90
4739;DHT22;2383;48.632;10.156;2023-09-07T10:45:58;19.10;99.90
4739;DHT22;2383;48.632;10.156;2023-09-07T10:50:02;19.90;99.90
4739;DHT22;2383;48.632;10.156;2023-09-07T10:54:14;20.10;99.90
4739;DHT22;2383;48.632;10.156;2023-09-07T10:58:35;20.30;99.90
4739;DHT22;2383;48.632;10.156;2023-09-07T11:02:38;20.30;99.90
4739;DHT22;2383;48.632;10.156;2023-09-07T11:06:41;20.50;99.90
4739;DHT22;2383;48.632;10.156;2023-09-07T11:10:43;20.50;99.90
4739;DHT22;2383;48.632;10.156;2023-09-07T11:14:47;20.10;99.90
4739;DHT22;2383;48.632;10.156;2023-09-07T11:18:50;20.00;99.90
4739;DHT22;2383;48.632;10.156;2023-09-07T11:22:53;20.60;99.90
4739;DHT22;2383;48.632;10.156;2023-09-07T11:27:08;20.30;99.90
4739;DHT22;2383;48.632;10.156;2023-09-07T11:31:11;20.30;99.90
4739;DHT22;2383;48.632;10.156;2023-09-07T11:35:13;20.20;99.90
4739;DHT22;2383;48.632;10.156;2023-09-07T11:39:15;20.10;99.90
4739;DHT22;2383;48.632;10.156;2023-09-07T11:43:17;20.40;99.80
4739;DHT22;2383;48.632;10.156;2023-09-07T11:47:22;20.90;99.50
4739;DHT22;2383;48.632;10.156;2023-09-07T11:51:24;20.90;99.40
4739;DHT22;2383;48.632;10.156;2023-09-07T11:55:27;21.00;99.00
4739;DHT22;2383;48.632;10.156;2023-09-07T11:59:29;21.30;99.30
4739;DHT22;2383;48.632;10.156;2023-09-07T12:03:45;20.90;98.90
4739;DHT22;2383;48.632;10.156;2023-09-07T12:07:54;20.80;98.60
4739;DHT22;2383;48.632;10.156;2023-09-07T12:11:56;21.20;98.90
4739;DHT22;2383;48.632;10.156;2023-09-07T12:15:58;21.50;98.70
4739;DHT22;2383;48.632;10.156;2023-09-07T12:20:01;21.60;98.60
4739;DHT22;2383;48.632;10.156;2023-09-07T12:24:03;21.60;97.80
4739;DHT22;2383;48.632;10.156;2023-09-07T12:28:05;21.60;98.10
4739;DHT22;2383;48.632;10.156;2023-09-07T12:32:09;21.80;98.60
4739;DHT22;2383;48.632;10.156;2023-09-07T12:36:11;22.00;98.00
4739;DHT22;2383;48.632;10.156;2023-09-07T12:40:13;22.10;98.00
4739;DHT22;2383;48.632;10.156;2023-09-07T12:44:17;22.00;98.30
4739;DHT22;2383;48.632;10.156;2023-09-07T12:48:20;22.00;98.50
4739;DHT22;2383;48.632;10.156;2023-09-07T12:52:22;22.10;98.20
4739;DHT22;2383;48.632;10.156;2023-09-07T12:56:24;22.00;98.80
4739;DHT22;2383;48.632;10.156;2023-09-07T13:00:27;22.40;97.60
4739;DHT22;2383;48.632;10.156;2023-09-07T13:04:31;22.20;97.70
4739;DHT22;2383;48.632;10.156;2023-09-07T13:08:33;22.30;97.80
4739;DHT22;2383;48.632;10.156;2023-09-07T13:12:37;22.10;98.00
4739;DHT22;2383;48.632;10.156;2023-09-07T13:16:39;22.10;98.20
4739;DHT22;2383;48.632;10.156;2023-09-07T13:20:41;22.00;97.40
4739;DHT22;2383;48.632;10.156;2023-09-07T13:24:44;21.80;97.90
4739;DHT22;2383;48.632;10.156;2023-09-07T13:28:46;22.00;97.00
4739;DHT22;2383;48.632;10.156;2023-09-07T13:32:48;22.10;96.80
4739;DHT22;2383;48.632;10.156;2023-09-07T13:36:52;21.80;97.00
4739;DHT22;2383;48.632;10.156;2023-09-07T13:40:55;22.40;96.80
4739;DHT22;2383;48.632;10.156;2023-09-07T13:44:58;22.50;97.20
4739;DHT22;2383;48.632;10.156;2023-09-07T13:49:00;22.50;96.70
4739;DHT22;2383;48.632;10.156;2023-09-07T13:53:03;22.50;96.60
4739;DHT22;2383;48.632;10.156;2023-09-07T13:57:06;22.30;96.00
4739;DHT22;2383;48.632;10.156;2023-09-07T14:01:10;22.20;97.00
4739;DHT22;2383;48.632;10.156;2023-09-07T14:05:12;22.20;96.80
4739;DHT22;2383;48.632;10.156;2023-09-07T14:09:14;22.10;96.40
4739;DHT22;2383;48.632;10.156;2023-09-07T14:13:18;21.50;97.50
4739;DHT22;2383;48.632;10.156;2023-09-07T14:17:20;21.70;96.30
4739;DHT22;2383;48.632;10.156;2023-09-07T14:21:22;22.10;95.80
4739;DHT22;2383;48.632;10.156;2023-09-07T14:25:24;22.30;95.00
4739;DHT22;2383;48.632;10.156;2023-09-07T14:29:27;21.20;96.10
4739;DHT22;2383;48.632;10.156;2023-09-07T14:33:30;21.70;96.20
4739;DHT22;2383;48.632;10.156;2023-09-07T14:37:34;21.50;95.90
4739;DHT22;2383;48.632;10.156;2023-09-07T14:41:36;21.70;96.40
4739;DHT22;2383;48.632;10.156;2023-09-07T14:45:38;22.30;95.20
4739;DHT22;2383;48.632;10.156;2023-09-07T14:49:41;22.50;95.10
4739;DHT22;2383;48.632;10.156;2023-09-07T14:53:43;22.50;94.90
4739;DHT22;2383;48.632;10.156;2023-09-07T14:57:45;22.60;93.90
4739;DHT22;2383;48.632;10.156;2023-09-07T15:01:52;22.40;94.30
4739;DHT22;2383;48.632;10.156;2023-09-07T15:06:08;22.70;94.30
4739;DHT22;2383;48.632;10.156;2023-09-07T15:10:19;22.10;94.50
4739;DHT22;2383;48.632;10.156;2023-09-07T15:14:21;22.20;93.90
4739;DHT22;2383;48.632;10.156;2023-09-07T15:18:24;22.10;94.50
4739;DHT22;2383;48.632;10.156;2023-09-07T15:22:26;22.40;93.40
4739;DHT22;2383;48.632;10.156;2023-09-07T15:31:41;22.30;93.60
4739;DHT22;2383;48.632;10.156;2023-09-07T15:35:43;21.90;94.30
4739;DHT22;2383;48.632;10.156;2023-09-07T15:39:46;22.20;93.60
4739;DHT22;2383;48.632;10.156;2023-09-07T15:43:51;22.50;93.40
4739;DHT22;2383;48.632;10.156;2023-09-07T15:47:55;22.20;93.30
4739;DHT22;2383;48.632;10.156;2023-09-07T15:51:57;22.30;93.00
4739;DHT22;2383;48.632;10.156;2023-09-07T15:55:59;22.60;93.20
4739;DHT22;2383;48.632;10.156;2023-09-07T16:00:02;22.60;93.60
4739;DHT22;2383;48.632;10.156;2023-09-07T16:04:13;22.70;93.10
4739;DHT22;2383;48.632;10.156;2023-09-07T16:08:15;22.60;92.50
4739;DHT22;2383;48.632;10.156;2023-09-07T16:12:17;22.70;93.00
4739;DHT22;2383;48.632;10.156;2023-09-07T16:16:19;22.60;92.50
4739;DHT22;2383;48.632;10.156;2023-09-07T16:20:21;22.50;93.00
4739;DHT22;2383;48.632;10.156;2023-09-07T16:24:24;22.50;93.00
4739;DHT22;2383;48.632;10.156;2023-09-07T16:28:26;22.50;92.80
4739;DHT22;2383;48.632;10.156;2023-09-07T16:32:28;22.20;92.40
4739;DHT22;2383;48.632;10.156;2023-09-07T16:36:31;22.40;93.00
4739;DHT22;2383;48.632;10.156;2023-09-07T16:40:36;22.00;93.00
4739;DHT22;2383;48.632;10.156;2023-09-07T16:44:39;22.00;93.60
4739;DHT22;2383;48.632;10.156;2023-09-07T16:48:41;21.80;93.70
4739;DHT22;2383;48.632;10.156;2023-09-07T16:52:44;22.10;93.70
4739;DHT22;2383;48.632;10.156;2023-09-07T16:56:45;22.20;93.50
4739;DHT22;2383;48.632;10.156;2023-09-07T17:00:48;22.30;93.60
4739;DHT22;2383;48.632;10.156;2023-09-07T17:04:50;22.00;93.40
4739;DHT22;2383;48.632;10.156;2023-09-07T17:08:52;22.10;93.50
4739;DHT22;2383;48.632;10.156;2023-09-07T17:12:54;22.10;93.60
4739;DHT22;2383;48.632;10.156;2023-09-07T17:16:56;21.30;94.00
4739;DHT22;2383;48.632;10.156;2023-09-07T17:21:03;21.70;94.00
4739;DHT22;2383;48.632;10.156;2023-09-07T17:25:06;21.50;94.00
4739;DHT22;2383;48.632;10.156;2023-09-07T17:29:08;21.60;93.80
4739;DHT22;2383;48.632;10.156;2023-09-07T17:33:11;21.60;93.70
4739;DHT22;2383;48.632;10.156;2023-09-07T17:37:13;21.70;93.90
4739;DHT22;2383;48.632;10.156;2023-09-07T17:41:16;21.30;94.40
4739;DHT22;2383;48.632;10.156;2023-09-07T17:45:18;21.10;94.30
4739;DHT22;2383;48.632;10.156;2023-09-07T17:49:20;21.20;94.50
4739;DHT22;2383;48.632;10.156;2023-09-07T17:53:24;21.20;94.50
4739;DHT22;2383;48.632;10.156;2023-09-07T17:57:26;21.10;94.70
4739;DHT22;2383;48.632;10.156;2023-09-07T18:01:28;21.00;95.30
4739;DHT22;2383;48.632;10.156;2023-09-07T18:05:31;20.90;95.60
4739;DHT22;2383;48.632;10.156;2023-09-07T18:09:33;20.80;96.20
4739;DHT22;2383;48.632;10.156;2023-09-07T18:13:35;20.50;96.40
4739;DHT22;2383;48.632;10.156;2023-09-07T18:17:37;20.40;96.20
4739;DHT22;2383;48.632;10.156;2023-09-07T18:21:42;20.30;96.70
4739;DHT22;2383;48.632;10.156;2023-09-07T18:25:44;20.10;96.90
4739;DHT22;2383;48.632;10.156;2023-09-07T18:29:46;20.00;97.40
4739;DHT22;2383;48.632;10.156;2023-09-07T18:33:48;19.80;97.90
4739;DHT22;2383;48.632;10.156;2023-09-07T18:37:51;19.60;98.00
4739;DHT22;2383;48.632;10.156;2023-09-07T18:41:53;19.40;98.30
4739;DHT22;2383;48.632;10.156;2023-09-07T18:45:56;19.30;98.50
4739;DHT22;2383;48.632;10.156;2023-09-07T18:49:59;19.20;98.60
4739;DHT22;2383;48.632;10.156;2023-09-07T18:54:01;18.90;99.10
4739;DHT22;2383;48.632;10.156;2023-09-07T18:58:03;18.90;99.20
4739;DHT22;2383;48.632;10.156;2023-09-07T19:02:05;18.80;99.40
4739;DHT22;2383;48.632;10.156;2023-09-07T19:06:07;18.60;99.40
4739;DHT22;2383;48.632;10.156;2023-09-07T19:10:09;18.40;99.70
4739;DHT22;2383;48.632;10.156;2023-09-07T19:14:11;18.10;99.70
4739;DHT22;2383;48.632;10.156;2023-09-07T19:18:13;17.80;99.80
4739;DHT22;2383;48.632;10.156;2023-09-07T19:22:16;17.60;99.90
4739;DHT22;2383;48.632;10.156;2023-09-07T19:26:36;17.40;99.90
4739;DHT22;2383;48.632;10.156;2023-09-07T19:30:38;17.40;99.90
4739;DHT22;2383;48.632;10.156;2023-09-07T19:34:41;17.20;99.90
4739;DHT22;2383;48.632;10.156;2023-09-07T19:38:43;17.20;99.90
4739;DHT22;2383;48.632;10.156;2023-09-07T19:42:45;17.40;99.90
4739;DHT22;2383;48.632;10.156;2023-09-07T19:46:47;17.30;99.90
4739;DHT22;2383;48.632;10.156;2023-09-07T19:50:49;17.30;99.90
4739;DHT22;2383;48.632;10.156;2023-09-07T19:54:51;17.30;99.90
4739;DHT22;2383;48.632;10.156;2023-09-07T19:58:55;17.30;99.90
4739;DHT22;2383;48.632;10.156;2023-09-07T20:02:57;17.00;99.90
4739;DHT22;2383;48.632;10.156;2023-09-07T20:06:59;16.50;99.90
4739;DHT22;2383;48.632;10.156;2023-09-07T20:11:07;16.40;99.90
4739;DHT22;2383;48.632;10.156;2023-09-07T20:15:10;16.20;99.90
4739;DHT22;2383;48.632;10.156;2023-09-07T20:19:12;16.20;99.90
4739;DHT22;2383;48.632;10.156;2023-09-07T20:23:15;16.40;99.90
4739;DHT22;2383;48.632;10.156;2023-09-07T20:27:17;16.50;99.90
4739;DHT22;2383;48.632;10.156;2023-09-07T20:31:19;16.40;99.90
4739;DHT22;2383;48.632;10.156;2023-09-07T20:35:21;16.20;99.90
4739;DHT22;2383;48.632;10.156;2023-09-07T20:39:24;15.90;99.90
4739;DHT22;2383;48.632;10.156;2023-09-07T20:43:27;15.80;99.90
4739;DHT22;2383;48.632;10.156;2023-09-07T20:47:29;15.70;99.90
4739;DHT22;2383;48.632;10.156;2023-09-07T20:51:31;15.30;99.90
4739;DHT22;2383;48.632;10.156;2023-09-07T20:55:36;15.50;99.90
4739;DHT22;2383;48.632;10.156;2023-09-07T20:59:38;15.70;99.90
4739;DHT22;2383;48.632;10.156;2023-09-07T21:03:40;15.60;99.90
4739;DHT22;2383;48.632;10.156;2023-09-07T21:07:42;15.60;99.90
4739;DHT22;2383;48.632;10.156;2023-09-07T21:11:45;15.70;99.90
4739;DHT22;2383;48.632;10.156;2023-09-07T21:15:47;15.90;99.90
4739;DHT22;2383;48.632;10.156;2023-09-07T21:19:49;15.90;99.90
4739;DHT22;2383;48.632;10.156;2023-09-07T21:23:51;15.90;99.90
4739;DHT22;2383;48.632;10.156;2023-09-07T21:27:53;15.90;99.90
4739;DHT22;2383;48.632;10.156;2023-09-07T21:31:56;15.70;99.90
4739;DHT22;2383;48.632;10.156;2023-09-07T21:35:58;15.70;99.90
4739;DHT22;2383;48.632;10.156;2023-09-07T21:40:00;15.80;99.90
4739;DHT22;2383;48.632;10.156;2023-09-07T21:44:03;15.70;99.90
4739;DHT22;2383;48.632;10.156;2023-09-07T21:48:06;15.80;99.90
4739;DHT22;2383;48.632;10.156;2023-09-07T21:52:08;15.80;99.90
4739;DHT22;2383;48.632;10.156;2023-09-07T21:56:10;15.70;99.90
4739;DHT22;2383;48.632;10.156;2023-09-07T22:00:12;15.80;99.90
4739;DHT22;2383;48.632;10.156;2023-09-07T22:04:18;15.80;99.90
4739;DHT22;2383;48.632;10.156;2023-09-07T22:08:20;15.90;99.90
4739;DHT22;2383;48.632;10.156;2023-09-07T22:12:22;15.90;99.90
4739;DHT22;2383;48.632;10.156;2023-09-07T22:16:24;15.70;99.90
4739;DHT22;2383;48.632;10.156;2023-09-07T22:20:26;15.50;99.90
4739;DHT22;2383;48.632;10.156;2023-09-07T22:24:30;15.40;99.90
4739;DHT22;2383;48.632;10.156;2023-09-07T22:28:32;15.40;99.90
4739;DHT22;2383;48.632;10.156;2023-09-07T22:32:34;15.20;99.90
4739;DHT22;2383;48.632;10.156;2023-09-07T22:36:36;14.90;99.90
4739;DHT22;2383;48.632;10.156;2023-09-07T22:40:39;15.00;99.90
4739;DHT22;2383;48.632;10.156;2023-09-07T22:44:41;15.20;99.90
4739;DHT22;2383;48.632;10.156;2023-09-07T22:48:43;15.20;99.90
4739;DHT22;2383;48.632;10.156;2023-09-07T22:52:45;15.00;99.90
4739;DHT22;2383;48.632;10.156;2023-09-07T22:56:47;15.10;99.90
4739;DHT22;2383;48.632;10.156;2023-09-07T23:00:49;15.30;99.90
4739;DHT22;2383;48.632;10.156;2023-09-07T23:04:54;15.00;99.90
4739;DHT22;2383;48.632;10.156;2023-09-07T23:08:56;14.60;99.90
4739;DHT22;2383;48.632;10.156;2023-09-07T23:12:59;14.80;99.90
4739;DHT22;2383;48.632;10.156;2023-09-07T23:17:01;14.90;99.90
4739;DHT22;2383;48.632;10.156;2023-09-07T23:21:03;14.80;99.90
4739;DHT22;2383;48.632;10.156;2023-09-07T23:25:08;14.70;99.90
4739;DHT22;2383;48.632;10.156;2023-09-07T23:29:10;14.60;99.90
4739;DHT22;2383;48.632;10.156;2023-09-07T23:33:13;14.60;99.90
4739;DHT22;2383;48.632;10.156;2023-09-07T23:37:15;14.50;99.90
4739;DHT22;2383;48.632;10.156;2023-09-07T23:41:17;14.40;99.90
4739;DHT22;2383;48.632;10.156;2023-09-07T23:45:19;14.50;99.90
4739;DHT22;2383;48.632;10.156;2023-09-07T23:49:21;14.30;99.90
4739;DHT22;2383;48.632;10.156;2023-09-07T23:53:23;14.10;99.90
4739;DHT22;2383;48.632;10.156;2023-09-07T23:57:28;14.10;99.90
